sensor_id;sensor_type;location;lat;lon;timestamp;pressure;altitude;pressure_sealevel;temperature;humidity
8360;BME280;4217;48.762;11.428;2022-08-01T00:06:38;97370.38;;;24.90;44.91
8360;BME280;4217;48.762;11.428;2022-08-01T00:16:41;97370.69;;;24.76;45.38
8360;BME280;4217;48.762;11.428;2022-08-01T00:26:43;97373.59;;;24.71;45.42
8360;BME280;4217;48.762;11.428;2022-08-01T00:36:44;97368.53;;;24.82;45.55
8360;BME280;4217;48.762;11.428;2022-08-01T00:46:46;97358.72;;;24.74;45.38
8360;BME280;4217;48.762;11.428;2022-08-01T00:56:47;97361.38;;;24.49;46.06
8360;BME280;4217;48.762;11.428;2022-08-01T01:17:06;97368.31;;;24.38;46.54
8360;BME280;4217;48.762;11.428;2022-08-01T01:27:22;97381.09;;;24.41;46.51
8360;BME280;4217;48.762;11.428;2022-08-01T01:37:27;97378.03;;;24.31;46.87
8360;BME280;4217;48.762;11.428;2022-08-01T01:47:31;97386.13;;;24.10;47.30
8360;BME280;4217;48.762;11.428;2022-08-01T01:57:39;97382.13;;;23.83;48.31
8360;BME280;4217;48.762;11.428;2022-08-01T02:07:42;97383.91;;;23.79;48.22
8360;BME280;4217;48.762;11.428;2022-08-01T02:17:47;97387.56;;;23.95;47.33
8360;BME280;4217;48.762;11.428;2022-08-01T02:28:03;97396.47;;;23.87;46.84
8360;BME280;4217;48.762;11.428;2022-08-01T02:38:09;97395.13;;;23.81;47.18
8360;BME280;4217;48.762;11.428;2022-08-01T02:48:13;97401.97;;;23.91;47.12
8360;BME280;4217;48.762;11.428;2022-08-01T02:58:16;97410.56;;;23.84;47.30
8360;BME280;4217;48.762;11.428;2022-08-01T03:08:20;97418.81;;;23.79;47.33
8360;BME280;4217;48.762;11.428;2022-08-01T03:18:24;97414.19;;;23.67;47.73
8360;BME280;4217;48.762;11.428;2022-08-01T03:28:29;97416.84;;;23.47;47.73
8360;BME280;4217;48.762;11.428;2022-08-01T03:38:33;97426.31;;;23.44;47.65
8360;BME280;4217;48.762;11.428;2022-08-01T03:48:43;97437.69;;;23.20;48.18
8360;BME280;4217;48.762;11.428;2022-08-01T03:58:47;97446.53;;;23.21;47.97
8360;BME280;4217;48.762;11.428;2022-08-01T04:08:50;97445.19;;;23.35;47.33
8360;BME280;4217;48.762;11.428;2022-08-01T04:18:58;97454.25;;;23.52;47.02
8360;BME280;4217;48.762;11.428;2022-08-01T04:29:01;97461.84;;;23.91;46.03
8360;BME280;4217;48.762;11.428;2022-08-01T04:39:04;97474.53;;;24.23;45.25
8360;BME280;4217;48.762;11.428;2022-08-01T04:49:08;97478.03;;;24.81;44.07
8360;BME280;4217;48.762;11.428;2022-08-01T04:59:10;97488.19;;;25.45;42.56
8360;BME280;4217;48.762;11.428;2022-08-01T05:09:31;97511.28;;;25.83;41.59
8360;BME280;4217;48.762;11.428;2022-08-01T05:19:34;97503.13;;;26.90;39.94
8360;BME280;4217;48.762;11.428;2022-08-01T05:29:36;97513.47;;;28.05;37.86
8360;BME280;4217;48.762;11.428;2022-08-01T05:39:44;97516.69;;;29.37;35.10
8360;BME280;4217;48.762;11.428;2022-08-01T05:49:46;97518.41;;;29.75;34.44
8360;BME280;4217;48.762;11.428;2022-08-01T05:59:48;97521.47;;;29.73;34.58
8360;BME280;4217;48.762;11.428;2022-08-01T06:09:49;97533.59;;;29.80;34.45
8360;BME280;4217;48.762;11.428;2022-08-01T06:19:51;97533.09;;;32.03;31.05
8360;BME280;4217;48.762;11.428;2022-08-01T06:29:53;97548.47;;;32.54;30.51
8360;BME280;4217;48.762;11.428;2022-08-01T06:39:54;97549.00;;;33.05;29.69
8360;BME280;4217;48.762;11.428;2022-08-01T06:49:56;97551.78;;;33.34;29.04
8360;BME280;4217;48.762;11.428;2022-08-01T07:00:01;97548.03;;;39.21;22.06
8360;BME280;4217;48.762;11.428;2022-08-01T07:10:04;97546.53;;;40.64;20.57
8360;BME280;4217;48.762;11.428;2022-08-01T07:20:10;97533.88;;;50.58;12.50
8360;BME280;4217;48.762;11.428;2022-08-01T07:30:14;97517.38;;;54.75;9.77
8360;BME280;4217;48.762;11.428;2022-08-01T07:40:17;97510.94;;;57.27;8.15
8360;BME280;4217;48.762;11.428;2022-08-01T07:50:19;97494.84;;;57.50;8.48
8360;BME280;4217;48.762;11.428;2022-08-01T08:00:20;97495.53;;;58.86;7.57
8360;BME280;4217;48.762;11.428;2022-08-01T08:10:22;97487.19;;;57.81;7.60
8360;BME280;4217;48.762;11.428;2022-08-01T08:20:23;97492.69;;;58.78;7.55
8360;BME280;4217;48.762;11.428;2022-08-01T08:30:31;97482.53;;;56.76;8.21
8360;BME280;4217;48.762;11.428;2022-08-01T08:40:34;97468.09;;;56.30;7.96
8360;BME280;4217;48.762;11.428;2022-08-01T08:50:41;97474.94;;;56.22;8.29
8360;BME280;4217;48.762;11.428;2022-08-01T09:00:42;97467.91;;;52.79;10.16
8360;BME280;4217;48.762;11.428;2022-08-01T09:10:47;97467.31;;;53.53;9.84
8360;BME280;4217;48.762;11.428;2022-08-01T09:20:50;97465.38;;;49.10;12.08
8360;BME280;4217;48.762;11.428;2022-08-01T09:30:51;97477.78;;;44.88;15.25
8360;BME280;4217;48.762;11.428;2022-08-01T09:40:55;97472.28;;;46.03;14.40
8360;BME280;4217;48.762;11.428;2022-08-01T09:50:59;97473.97;;;42.79;16.27
8360;BME280;4217;48.762;11.428;2022-08-01T10:01:07;97473.41;;;44.30;15.13
8360;BME280;4217;48.762;11.428;2022-08-01T10:11:11;97465.66;;;44.43;15.15
8360;BME280;4217;48.762;11.428;2022-08-01T10:21:13;97462.00;;;41.55;17.00
8360;BME280;4217;48.762;11.428;2022-08-01T10:31:16;97453.81;;;44.25;14.69
8360;BME280;4217;48.762;11.428;2022-08-01T10:41:20;97439.94;;;44.67;14.53
8360;BME280;4217;48.762;11.428;2022-08-01T10:51:23;97445.44;;;43.92;15.37
8360;BME280;4217;48.762;11.428;2022-08-01T11:01:55;97443.59;;;45.06;14.38
8360;BME280;4217;48.762;11.428;2022-08-01T11:12:05;97430.50;;;41.31;17.16
8360;BME280;4217;48.762;11.428;2022-08-01T11:22:24;97427.00;;;38.56;20.12
8360;BME280;4217;48.762;11.428;2022-08-01T11:32:27;97433.31;;;37.38;21.44
8360;BME280;4217;48.762;11.428;2022-08-01T11:42:28;97431.88;;;36.83;22.15
8360;BME280;4217;48.762;11.428;2022-08-01T11:52:31;97449.78;;;36.68;22.56
8360;BME280;4217;48.762;11.428;2022-08-01T12:02:37;97427.34;;;36.96;22.21
8360;BME280;4217;48.762;11.428;2022-08-01T12:12:44;97421.16;;;37.98;20.95
8360;BME280;4217;48.762;11.428;2022-08-01T12:22:47;97413.88;;;37.29;21.86
8360;BME280;4217;48.762;11.428;2022-08-01T12:32:49;97416.22;;;36.84;22.11
8360;BME280;4217;48.762;11.428;2022-08-01T12:42:53;97415.56;;;35.58;23.71
8360;BME280;4217;48.762;11.428;2022-08-01T12:52:56;97411.91;;;35.38;24.12
8360;BME280;4217;48.762;11.428;2022-08-01T13:03:14;97404.47;;;37.06;22.13
8360;BME280;4217;48.762;11.428;2022-08-01T13:13:18;97398.91;;;36.10;23.15
8360;BME280;4217;48.762;11.428;2022-08-01T13:23:28;97391.91;;;35.00;24.56
8360;BME280;4217;48.762;11.428;2022-08-01T13:33:50;97376.59;;;36.38;22.69
8360;BME280;4217;48.762;11.428;2022-08-01T13:44:00;97359.31;;;37.15;21.65
8360;BME280;4217;48.762;11.428;2022-08-01T13:54:03;97364.91;;;36.84;21.86
8360;BME280;4217;48.762;11.428;2022-08-01T14:04:04;97363.66;;;37.91;20.94
8360;BME280;4217;48.762;11.428;2022-08-01T14:14:06;97360.53;;;39.06;19.42
8360;BME280;4217;48.762;11.428;2022-08-01T14:24:08;97360.44;;;38.64;19.73
8360;BME280;4217;48.762;11.428;2022-08-01T14:34:10;97375.75;;;37.58;20.71
8360;BME280;4217;48.762;11.428;2022-08-01T14:44:14;97371.50;;;36.63;21.63
8360;BME280;4217;48.762;11.428;2022-08-01T14:54:15;97373.91;;;36.08;22.50
8360;BME280;4217;48.762;11.428;2022-08-01T15:04:27;97373.63;;;35.68;22.72
8360;BME280;4217;48.762;11.428;2022-08-01T15:14:29;97376.22;;;35.48;23.04
8360;BME280;4217;48.762;11.428;2022-08-01T15:24:50;97385.88;;;34.16;24.60
8360;BME280;4217;48.762;11.428;2022-08-01T15:34:57;97419.69;;;32.21;31.41
8360;BME280;4217;48.762;11.428;2022-08-01T15:44:59;97423.84;;;31.94;32.98
8360;BME280;4217;48.762;11.428;2022-08-01T15:55:00;97423.66;;;31.55;34.66
8360;BME280;4217;48.762;11.428;2022-08-01T16:05:02;97420.94;;;31.58;34.45
8360;BME280;4217;48.762;11.428;2022-08-01T16:15:04;97421.88;;;30.71;35.83
8360;BME280;4217;48.762;11.428;2022-08-01T16:25:06;97410.72;;;30.42;36.36
8360;BME280;4217;48.762;11.428;2022-08-01T16:35:08;97413.25;;;30.58;36.55
8360;BME280;4217;48.762;11.428;2022-08-01T16:45:09;97407.66;;;31.46;35.04
8360;BME280;4217;48.762;11.428;2022-08-01T16:55:14;97403.69;;;32.09;33.33
8360;BME280;4217;48.762;11.428;2022-08-01T17:05:15;97398.28;;;32.16;33.37
8360;BME280;4217;48.762;11.428;2022-08-01T17:15:17;97402.44;;;31.82;33.57
8360;BME280;4217;48.762;11.428;2022-08-01T17:25:19;97405.28;;;31.38;34.08
8360;BME280;4217;48.762;11.428;2022-08-01T17:35:21;97415.19;;;31.05;34.56
8360;BME280;4217;48.762;11.428;2022-08-01T17:45:23;97419.25;;;30.81;35.54
8360;BME280;4217;48.762;11.428;2022-08-01T17:55:28;97423.63;;;30.49;35.84
8360;BME280;4217;48.762;11.428;2022-08-01T18:05:50;97445.69;;;29.51;37.90
8360;BME280;4217;48.762;11.428;2022-08-01T18:15:53;97447.31;;;29.06;39.69
8360;BME280;4217;48.762;11.428;2022-08-01T18:25:56;97456.16;;;29.03;40.43
8360;BME280;4217;48.762;11.428;2022-08-01T18:36:02;97452.31;;;28.59;41.96
8360;BME280;4217;48.762;11.428;2022-08-01T18:46:04;97455.09;;;28.20;43.51
8360;BME280;4217;48.762;11.428;2022-08-01T18:56:06;97467.75;;;28.16;43.78
8360;BME280;4217;48.762;11.428;2022-08-01T19:06:12;97489.78;;;27.99;44.00
8360;BME280;4217;48.762;11.428;2022-08-01T19:16:13;97513.25;;;27.95;44.19
8360;BME280;4217;48.762;11.428;2022-08-01T19:26:19;97519.69;;;27.71;43.56
8360;BME280;4217;48.762;11.428;2022-08-01T19:36:21;97521.19;;;27.68;42.79
8360;BME280;4217;48.762;11.428;2022-08-01T19:46:23;97514.25;;;27.20;42.43
8360;BME280;4217;48.762;11.428;2022-08-01T19:56:26;97503.84;;;27.38;41.85
8360;BME280;4217;48.762;11.428;2022-08-01T20:06:28;97508.94;;;27.24;42.04
8360;BME280;4217;48.762;11.428;2022-08-01T20:16:29;97533.53;;;26.75;43.21
8360;BME280;4217;48.762;11.428;2022-08-01T20:26:33;97537.63;;;26.69;43.34
8360;BME280;4217;48.762;11.428;2022-08-01T20:36:36;97546.00;;;26.52;43.93
8360;BME280;4217;48.762;11.428;2022-08-01T20:46:39;97540.78;;;26.59;43.90
8360;BME280;4217;48.762;11.428;2022-08-01T20:56:45;97554.72;;;26.61;44.00
8360;BME280;4217;48.762;11.428;2022-08-01T21:07:02;97573.47;;;26.70;43.87
8360;BME280;4217;48.762;11.428;2022-08-01T21:17:14;97573.75;;;26.52;44.79
8360;BME280;4217;48.762;11.428;2022-08-01T21:27:19;97592.56;;;26.49;45.01
8360;BME280;4217;48.762;11.428;2022-08-01T21:37:35;97619.78;;;26.44;45.33
8360;BME280;4217;48.762;11.428;2022-08-01T21:47:38;97643.63;;;26.30;46.22
8360;BME280;4217;48.762;11.428;2022-08-01T22:08:01;97692.53;;;25.47;50.54
8360;BME280;4217;48.762;11.428;2022-08-01T22:18:03;97690.16;;;25.12;50.79
8360;BME280;4217;48.762;11.428;2022-08-01T22:28:05;97687.75;;;24.98;51.48
8360;BME280;4217;48.762;11.428;2022-08-01T22:38:10;97690.66;;;24.93;51.86
8360;BME280;4217;48.762;11.428;2022-08-01T22:48:30;97680.38;;;25.08;51.75
8360;BME280;4217;48.762;11.428;2022-08-01T22:58:35;97678.03;;;25.06;51.78
8360;BME280;4217;48.762;11.428;2022-08-01T23:08:39;97654.31;;;24.67;53.80
8360;BME280;4217;48.762;11.428;2022-08-01T23:18:41;97648.78;;;24.84;53.19
8360;BME280;4217;48.762;11.428;2022-08-01T23:28:46;97631.81;;;24.50;55.07
8360;BME280;4217;48.762;11.428;2022-08-01T23:38:48;97638.34;;;24.61;55.42
8360;BME280;4217;48.762;11.428;2022-08-01T23:48:49;97642.97;;;24.61;57.20
8360;BME280;4217;48.762;11.428;2022-08-01T23:58:51;97640.66;;;24.51;57.33
